sensor_id;sensor_type;location;lat;lon;timestamp;pressure;altitude;pressure_sealevel;temperature
66113;BMP280;52893;52.870;5.822;2023-04-29T00:00:09;101372.38;;;11.20
66113;BMP280;52893;52.870;5.822;2023-04-29T00:02:40;101375.56;;;11.22
66113;BMP280;52893;52.870;5.822;2023-04-29T00:05:08;101377.47;;;11.22
66113;BMP280;52893;52.870;5.822;2023-04-29T00:07:36;101384.13;;;11.21
66113;BMP280;52893;52.870;5.822;2023-04-29T00:10:04;101386.03;;;11.20
66113;BMP280;52893;52.870;5.822;2023-04-29T00:12:31;101385.38;;;11.23
66113;BMP280;52893;52.870;5.822;2023-04-29T00:14:59;101391.66;;;11.24
66113;BMP280;52893;52.870;5.822;2023-04-29T00:17:29;101398.72;;;11.25
66113;BMP280;52893;52.870;5.822;2023-04-29T00:19:56;101391.66;;;11.24
66113;BMP280;52893;52.870;5.822;2023-04-29T00:22:23;101399.03;;;11.23
66113;BMP280;52893;52.870;5.822;2023-04-29T00:24:50;101387.78;;;11.25
66113;BMP280;52893;52.870;5.822;2023-04-29T00:27:18;101407.72;;;11.25
66113;BMP280;52893;52.870;5.822;2023-04-29T00:29:46;101406.13;;;11.24
66113;BMP280;52893;52.870;5.822;2023-04-29T00:32:13;101405.31;;;11.24
66113;BMP280;52893;52.870;5.822;2023-04-29T00:34:42;101408.03;;;11.24
66113;BMP280;52893;52.870;5.822;2023-04-29T00:37:09;101407.91;;;11.20
66113;BMP280;52893;52.870;5.822;2023-04-29T00:39:37;101422.22;;;11.26
66113;BMP280;52893;52.870;5.822;2023-04-29T00:42:04;101426.56;;;11.27
66113;BMP280;52893;52.870;5.822;2023-04-29T00:44:31;101429.91;;;11.24
66113;BMP280;52893;52.870;5.822;2023-04-29T00:46:58;101432.34;;;11.25
66113;BMP280;52893;52.870;5.822;2023-04-29T00:49:26;101433.97;;;11.26
66113;BMP280;52893;52.870;5.822;2023-04-29T00:51:55;101436.47;;;11.23
66113;BMP280;52893;52.870;5.822;2023-04-29T00:54:23;101442.47;;;11.25
66113;BMP280;52893;52.870;5.822;2023-04-29T00:56:51;101447.13;;;11.24
66113;BMP280;52893;52.870;5.822;2023-04-29T00:59:19;101448.22;;;11.23
66113;BMP280;52893;52.870;5.822;2023-04-29T01:01:47;101448.72;;;11.25
66113;BMP280;52893;52.870;5.822;2023-04-29T01:04:15;101449.53;;;11.26
66113;BMP280;52893;52.870;5.822;2023-04-29T01:06:49;101447.41;;;11.23
66113;BMP280;52893;52.870;5.822;2023-04-29T01:09:33;101463.50;;;11.24
66113;BMP280;52893;52.870;5.822;2023-04-29T01:12:14;101459.16;;;11.23
66113;BMP280;52893;52.870;5.822;2023-04-29T01:14:53;101465.72;;;11.22
66113;BMP280;52893;52.870;5.822;2023-04-29T01:17:24;101474.75;;;11.23
66113;BMP280;52893;52.870;5.822;2023-04-29T01:19:54;101474.75;;;11.23
66113;BMP280;52893;52.870;5.822;2023-04-29T01:22:22;101480.22;;;11.23
66113;BMP280;52893;52.870;5.822;2023-04-29T01:24:51;101486.50;;;11.23
66113;BMP280;52893;52.870;5.822;2023-04-29T01:27:27;101484.06;;;11.22
66113;BMP280;52893;52.870;5.822;2023-04-29T01:30:08;101479.25;;;11.19
66113;BMP280;52893;52.870;5.822;2023-04-29T01:32:45;101484.41;;;11.20
66113;BMP280;52893;52.870;5.822;2023-04-29T01:35:22;101485.84;;;11.18
66113;BMP280;52893;52.870;5.822;2023-04-29T01:37:56;101499.34;;;11.23
66113;BMP280;52893;52.870;5.822;2023-04-29T01:40:33;101487.09;;;11.11
66113;BMP280;52893;52.870;5.822;2023-04-29T01:43:10;101504.38;;;11.21
66113;BMP280;52893;52.870;5.822;2023-04-29T01:45:43;101509.31;;;11.19
66113;BMP280;52893;52.870;5.822;2023-04-29T01:48:11;101520.25;;;11.19
66113;BMP280;52893;52.870;5.822;2023-04-29T01:50:40;101522.97;;;11.19
66113;BMP280;52893;52.870;5.822;2023-04-29T01:53:10;101519.13;;;11.20
66113;BMP280;52893;52.870;5.822;2023-04-29T01:55:40;101520.75;;;11.21
66113;BMP280;52893;52.870;5.822;2023-04-29T01:58:35;101530.06;;;11.20
66113;BMP280;52893;52.870;5.822;2023-04-29T02:01:23;101524.91;;;11.18
66113;BMP280;52893;52.870;5.822;2023-04-29T02:03:51;101535.63;;;11.14
66113;BMP280;52893;52.870;5.822;2023-04-29T02:06:19;101536.28;;;11.11
66113;BMP280;52893;52.870;5.822;2023-04-29T02:08:51;101537.06;;;11.12
66113;BMP280;52893;52.870;5.822;2023-04-29T02:11:20;101546.41;;;11.11
66113;BMP280;52893;52.870;5.822;2023-04-29T02:13:47;101536.88;;;11.08
66113;BMP280;52893;52.870;5.822;2023-04-29T02:16:15;101542.34;;;11.08
66113;BMP280;52893;52.870;5.822;2023-04-29T02:18:49;101554.91;;;11.09
66113;BMP280;52893;52.870;5.822;2023-04-29T02:21:16;101554.91;;;11.09
66113;BMP280;52893;52.870;5.822;2023-04-29T02:23:43;101554.91;;;11.09
66113;BMP280;52893;52.870;5.822;2023-04-29T02:26:10;101563.41;;;11.08
66113;BMP280;52893;52.870;5.822;2023-04-29T02:28:40;101557.13;;;11.07
66113;BMP280;52893;52.870;5.822;2023-04-29T02:31:07;101571.91;;;11.06
66113;BMP280;52893;52.870;5.822;2023-04-29T02:33:35;101569.78;;;11.03
66113;BMP280;52893;52.870;5.822;2023-04-29T02:36:03;101568.50;;;11.01
66113;BMP280;52893;52.870;5.822;2023-04-29T02:38:30;101573.97;;;11.01
66113;BMP280;52893;52.870;5.822;2023-04-29T02:40:58;101582.75;;;10.98
66113;BMP280;52893;52.870;5.822;2023-04-29T02:43:25;101579.53;;;10.96
66113;BMP280;52893;52.870;5.822;2023-04-29T02:45:57;101584.47;;;10.94
66113;BMP280;52893;52.870;5.822;2023-04-29T02:48:25;101582.88;;;10.93
66113;BMP280;52893;52.870;5.822;2023-04-29T02:50:52;101582.72;;;10.89
66113;BMP280;52893;52.870;5.822;2023-04-29T02:53:19;101588.94;;;10.90
66113;BMP280;52893;52.870;5.822;2023-04-29T02:55:47;101583.81;;;10.88
66113;BMP280;52893;52.870;5.822;2023-04-29T02:58:14;101591.50;;;10.86
66113;BMP280;52893;52.870;5.822;2023-04-29T03:00:41;101586.03;;;10.86
66113;BMP280;52893;52.870;5.822;2023-04-29T03:03:10;101590.97;;;10.84
66113;BMP280;52893;52.870;5.822;2023-04-29T03:05:37;101593.22;;;10.82
66113;BMP280;52893;52.870;5.822;2023-04-29T03:08:05;101589.19;;;10.80
66113;BMP280;52893;52.870;5.822;2023-04-29T03:10:32;101598.22;;;10.80
66113;BMP280;52893;52.870;5.822;2023-04-29T03:12:59;101596.28;;;10.81
66113;BMP280;52893;52.870;5.822;2023-04-29T03:15:27;101600.94;;;10.80
66113;BMP280;52893;52.870;5.822;2023-04-29T03:17:54;101601.75;;;10.81
66113;BMP280;52893;52.870;5.822;2023-04-29T03:20:23;101612.69;;;10.81
66113;BMP280;52893;52.870;5.822;2023-04-29T03:22:50;101611.06;;;10.80
66113;BMP280;52893;52.870;5.822;2023-04-29T03:25:17;101607.59;;;10.74
66113;BMP280;52893;52.870;5.822;2023-04-29T03:27:45;101611.06;;;10.80
66113;BMP280;52893;52.870;5.822;2023-04-29T03:30:12;101616.50;;;10.80
66113;BMP280;52893;52.870;5.822;2023-04-29T03:32:46;101621.97;;;10.80
66113;BMP280;52893;52.870;5.822;2023-04-29T03:35:13;101614.88;;;10.79
66113;BMP280;52893;52.870;5.822;2023-04-29T03:37:49;101614.06;;;10.78
66113;BMP280;52893;52.870;5.822;2023-04-29T03:40:22;101619.53;;;10.78
66113;BMP280;52893;52.870;5.822;2023-04-29T03:42:50;101621.16;;;10.79
66113;BMP280;52893;52.870;5.822;2023-04-29T03:45:18;101612.97;;;10.79
66113;BMP280;52893;52.870;5.822;2023-04-29T03:47:46;101621.97;;;10.80
66113;BMP280;52893;52.870;5.822;2023-04-29T03:50:13;101621.16;;;10.79
66113;BMP280;52893;52.870;5.822;2023-04-29T03:52:41;101615.69;;;10.79
66113;BMP280;52893;52.870;5.822;2023-04-29T03:55:16;101632.09;;;10.79
66113;BMP280;52893;52.870;5.822;2023-04-29T03:57:44;101637.53;;;10.79
66113;BMP280;52893;52.870;5.822;2023-04-29T04:00:13;101630.16;;;10.80
66113;BMP280;52893;52.870;5.822;2023-04-29T04:02:44;101637.53;;;10.79
66113;BMP280;52893;52.870;5.822;2023-04-29T04:05:11;101636.75;;;10.79
66113;BMP280;52893;52.870;5.822;2023-04-29T04:07:42;101637.53;;;10.79
66113;BMP280;52893;52.870;5.822;2023-04-29T04:10:29;101643.00;;;10.79
66113;BMP280;52893;52.870;5.822;2023-04-29T04:12:58;101647.97;;;10.77
66113;BMP280;52893;52.870;5.822;2023-04-29T04:15:26;101654.53;;;10.76
66113;BMP280;52893;52.870;5.822;2023-04-29T04:17:53;101662.72;;;10.76
66113;BMP280;52893;52.870;5.822;2023-04-29T04:20:20;101667.06;;;10.77
66113;BMP280;52893;52.870;5.822;2023-04-29T04:22:49;101672.03;;;10.75
66113;BMP280;52893;52.870;5.822;2023-04-29T04:25:21;101669.28;;;10.75
66113;BMP280;52893;52.870;5.822;2023-04-29T04:27:51;101672.03;;;10.75
66113;BMP280;52893;52.870;5.822;2023-04-29T04:30:34;101667.69;;;10.74
66113;BMP280;52893;52.870;5.822;2023-04-29T04:33:02;101674.75;;;10.75
66113;BMP280;52893;52.870;5.822;2023-04-29T04:35:30;101674.75;;;10.75
66113;BMP280;52893;52.870;5.822;2023-04-29T04:37:57;101688.91;;;10.77
66113;BMP280;52893;52.870;5.822;2023-04-29T04:40:25;101676.88;;;10.78
66113;BMP280;52893;52.870;5.822;2023-04-29T04:43:23;101681.25;;;10.79
66113;BMP280;52893;52.870;5.822;2023-04-29T04:45:51;101673.06;;;10.79
66113;BMP280;52893;52.870;5.822;2023-04-29T04:48:18;101675.78;;;10.79
66113;BMP280;52893;52.870;5.822;2023-04-29T04:50:49;101691.06;;;10.80
66113;BMP280;52893;52.870;5.822;2023-04-29T04:53:16;101693.19;;;10.83
66113;BMP280;52893;52.870;5.822;2023-04-29T04:55:59;101697.00;;;10.82
66113;BMP280;52893;52.870;5.822;2023-04-29T04:58:29;101702.97;;;10.84
66113;BMP280;52893;52.870;5.822;2023-04-29T05:00:57;101695.28;;;10.86
66113;BMP280;52893;52.870;5.822;2023-04-29T05:03:25;101691.75;;;10.86
66113;BMP280;52893;52.870;5.822;2023-04-29T05:05:53;101706.72;;;10.88
66113;BMP280;52893;52.870;5.822;2023-04-29T05:08:20;101710.28;;;10.89
66113;BMP280;52893;52.870;5.822;2023-04-29T05:10:48;101710.78;;;10.91
66113;BMP280;52893;52.870;5.822;2023-04-29T05:13:16;101713.22;;;10.92
66113;BMP280;52893;52.870;5.822;2023-04-29T05:15:45;101716.13;;;10.96
66113;BMP280;52893;52.870;5.822;2023-04-29T05:18:16;101715.63;;;10.94
66113;BMP280;52893;52.870;5.822;2023-04-29T05:20:47;101723.41;;;11.00
66113;BMP280;52893;52.870;5.822;2023-04-29T05:23:14;101720.16;;;10.98
66113;BMP280;52893;52.870;5.822;2023-04-29T05:25:44;101725.53;;;11.03
66113;BMP280;52893;52.870;5.822;2023-04-29T05:28:11;101722.50;;;11.05
66113;BMP280;52893;52.870;5.822;2023-04-29T05:30:40;101729.25;;;11.07
66113;BMP280;52893;52.870;5.822;2023-04-29T05:33:10;101730.88;;;11.08
66113;BMP280;52893;52.870;5.822;2023-04-29T05:35:38;101734.94;;;11.11
66113;BMP280;52893;52.870;5.822;2023-04-29T05:38:05;101745.06;;;11.10
66113;BMP280;52893;52.870;5.822;2023-04-29T05:40:49;101742.81;;;11.12
66113;BMP280;52893;52.870;5.822;2023-04-29T05:43:41;101738.50;;;11.11
66113;BMP280;52893;52.870;5.822;2023-04-29T05:46:08;101745.56;;;11.12
66113;BMP280;52893;52.870;5.822;2023-04-29T05:48:37;101750.69;;;11.14
66113;BMP280;52893;52.870;5.822;2023-04-29T05:51:04;101741.38;;;11.15
66113;BMP280;52893;52.870;5.822;2023-04-29T05:53:32;101755.88;;;11.15
66113;BMP280;52893;52.870;5.822;2023-04-29T05:56:00;101757.50;;;11.16
66113;BMP280;52893;52.870;5.822;2023-04-29T05:58:30;101766.22;;;11.19
66113;BMP280;52893;52.870;5.822;2023-04-29T06:00:57;101768.94;;;11.19
66113;BMP280;52893;52.870;5.822;2023-04-29T06:03:25;101771.38;;;11.20
66113;BMP280;52893;52.870;5.822;2023-04-29T06:06:15;101763.19;;;11.20
66113;BMP280;52893;52.870;5.822;2023-04-29T06:09:06;101766.22;;;11.19
66113;BMP280;52893;52.870;5.822;2023-04-29T06:11:34;101779.88;;;11.19
66113;BMP280;52893;52.870;5.822;2023-04-29T06:14:02;101776.03;;;11.20
66113;BMP280;52893;52.870;5.822;2023-04-29T06:16:29;101785.13;;;11.29
66113;BMP280;52893;52.870;5.822;2023-04-29T06:18:57;101787.81;;;11.42
66113;BMP280;52893;52.870;5.822;2023-04-29T06:21:25;101788.41;;;11.53
66113;BMP280;52893;52.870;5.822;2023-04-29T06:23:53;101794.97;;;11.66
66113;BMP280;52893;52.870;5.822;2023-04-29T06:26:21;101796.03;;;11.78
66113;BMP280;52893;52.870;5.822;2023-04-29T06:28:49;101806.41;;;11.90
66113;BMP280;52893;52.870;5.822;2023-04-29T06:31:16;101807.47;;;12.02
66113;BMP280;52893;52.870;5.822;2023-04-29T06:33:43;101819.00;;;12.13
66113;BMP280;52893;52.870;5.822;2023-04-29T06:36:11;101814.06;;;12.24
66113;BMP280;52893;52.870;5.822;2023-04-29T06:38:43;101820.28;;;12.38
66113;BMP280;52893;52.870;5.822;2023-04-29T06:41:29;101826.16;;;12.53
66113;BMP280;52893;52.870;5.822;2023-04-29T06:44:23;101831.31;;;12.77
66113;BMP280;52893;52.870;5.822;2023-04-29T06:47:23;101802.94;;;12.82
66113;BMP280;52893;52.870;5.822;2023-04-29T06:50:10;101840.00;;;13.19
66113;BMP280;52893;52.870;5.822;2023-04-29T06:52:37;101852.94;;;13.44
66113;BMP280;52893;52.870;5.822;2023-04-29T06:55:07;101849.72;;;13.59
66113;BMP280;52893;52.870;5.822;2023-04-29T06:57:36;101855.72;;;13.78
66113;BMP280;52893;52.870;5.822;2023-04-29T07:00:04;101859.75;;;13.98
66113;BMP280;52893;52.870;5.822;2023-04-29T07:02:32;101861.97;;;14.13
66113;BMP280;52893;52.870;5.822;2023-04-29T07:04:59;101876.06;;;14.29
66113;BMP280;52893;52.870;5.822;2023-04-29T07:07:27;101878.47;;;14.39
66113;BMP280;52893;52.870;5.822;2023-04-29T07:09:56;101871.78;;;14.48
66113;BMP280;52893;52.870;5.822;2023-04-29T07:12:25;101881.44;;;14.63
66113;BMP280;52893;52.870;5.822;2023-04-29T07:14:53;101886.28;;;14.75
66113;BMP280;52893;52.870;5.822;2023-04-29T07:17:20;101878.47;;;14.85
66113;BMP280;52893;52.870;5.822;2023-04-29T07:19:47;101876.00;;;14.92
66113;BMP280;52893;52.870;5.822;2023-04-29T07:22:15;101895.53;;;14.99
66113;BMP280;52893;52.870;5.822;2023-04-29T07:24:42;101893.09;;;15.07
66113;BMP280;52893;52.870;5.822;2023-04-29T07:27:09;101901.78;;;15.17
66113;BMP280;52893;52.870;5.822;2023-04-29T07:29:38;101896.09;;;15.22
66113;BMP280;52893;52.870;5.822;2023-04-29T07:32:05;101901.72;;;15.26
66113;BMP280;52893;52.870;5.822;2023-04-29T07:34:36;101906.06;;;15.27
66113;BMP280;52893;52.870;5.822;2023-04-29T07:37:03;101908.16;;;15.30
66113;BMP280;52893;52.870;5.822;2023-04-29T07:39:31;101905.38;;;15.38
66113;BMP280;52893;52.870;5.822;2023-04-29T07:42:02;101908.06;;;15.47
66113;BMP280;52893;52.870;5.822;2023-04-29T07:44:30;101911.75;;;15.51
66113;BMP280;52893;52.870;5.822;2023-04-29T07:46:59;101905.78;;;15.49
66113;BMP280;52893;52.870;5.822;2023-04-29T07:49:28;101919.28;;;15.63
66113;BMP280;52893;52.870;5.822;2023-04-29T07:51:55;101923.53;;;15.60
66113;BMP280;52893;52.870;5.822;2023-04-29T07:54:22;101925.97;;;15.62
66113;BMP280;52893;52.870;5.822;2023-04-29T07:56:50;101932.53;;;15.69
66113;BMP280;52893;52.870;5.822;2023-04-29T07:59:19;101936.00;;;15.78
66113;BMP280;52893;52.870;5.822;2023-04-29T08:01:46;101935.16;;;15.86
66113;BMP280;52893;52.870;5.822;2023-04-29T08:04:15;101943.00;;;15.96
66113;BMP280;52893;52.870;5.822;2023-04-29T08:06:48;101948.09;;;16.07
66113;BMP280;52893;52.870;5.822;2023-04-29T08:09:15;101939.63;;;16.12
66113;BMP280;52893;52.870;5.822;2023-04-29T08:11:43;101943.13;;;16.21
66113;BMP280;52893;52.870;5.822;2023-04-29T08:14:12;101943.38;;;16.28
66113;BMP280;52893;52.870;5.822;2023-04-29T08:16:39;101950.59;;;16.32
66113;BMP280;52893;52.870;5.822;2023-04-29T08:19:06;101942.00;;;16.34
66113;BMP280;52893;52.870;5.822;2023-04-29T08:21:35;101950.06;;;16.39
66113;BMP280;52893;52.870;5.822;2023-04-29T08:24:03;101965.34;;;16.48
66113;BMP280;52893;52.870;5.822;2023-04-29T08:26:30;101961.59;;;16.53
66113;BMP280;52893;52.870;5.822;2023-04-29T08:28:57;101964.41;;;16.65
66113;BMP280;52893;52.870;5.822;2023-04-29T08:31:25;101954.56;;;16.76
66113;BMP280;52893;52.870;5.822;2023-04-29T08:33:52;101968.69;;;16.87
66113;BMP280;52893;52.870;5.822;2023-04-29T08:36:19;101968.81;;;16.90
66113;BMP280;52893;52.870;5.822;2023-04-29T08:38:48;101971.94;;;17.01
66113;BMP280;52893;52.870;5.822;2023-04-29T08:41:17;101968.38;;;17.13
66113;BMP280;52893;52.870;5.822;2023-04-29T08:43:44;101975.59;;;17.29
66113;BMP280;52893;52.870;5.822;2023-04-29T08:46:12;101977.31;;;17.46
66113;BMP280;52893;52.870;5.822;2023-04-29T08:48:39;101990.19;;;17.66
66113;BMP280;52893;52.870;5.822;2023-04-29T08:51:07;101982.09;;;17.85
66113;BMP280;52893;52.870;5.822;2023-04-29T08:53:34;101994.00;;;18.01
66113;BMP280;52893;52.870;5.822;2023-04-29T08:56:08;101989.69;;;18.16
66113;BMP280;52893;52.870;5.822;2023-04-29T08:58:38;101997.22;;;18.31
66113;BMP280;52893;52.870;5.822;2023-04-29T09:01:07;101989.88;;;18.51
66113;BMP280;52893;52.870;5.822;2023-04-29T09:03:41;101997.84;;;18.52
66113;BMP280;52893;52.870;5.822;2023-04-29T09:06:09;101984.78;;;18.53
66113;BMP280;52893;52.870;5.822;2023-04-29T09:08:38;101989.38;;;18.61
66113;BMP280;52893;52.870;5.822;2023-04-29T09:11:08;101989.00;;;18.62
66113;BMP280;52893;52.870;5.822;2023-04-29T09:13:36;101998.94;;;18.79
66113;BMP280;52893;52.870;5.822;2023-04-29T09:16:04;101990.25;;;18.96
66113;BMP280;52893;52.870;5.822;2023-04-29T09:18:44;101999.81;;;19.14
66113;BMP280;52893;52.870;5.822;2023-04-29T09:21:17;102001.16;;;19.20
66113;BMP280;52893;52.870;5.822;2023-04-29T09:23:45;102002.19;;;19.32
66113;BMP280;52893;52.870;5.822;2023-04-29T09:26:14;102002.66;;;19.53
66113;BMP280;52893;52.870;5.822;2023-04-29T09:28:41;101998.28;;;19.67
66113;BMP280;52893;52.870;5.822;2023-04-29T09:31:10;102008.16;;;19.88
66113;BMP280;52893;52.870;5.822;2023-04-29T09:33:52;102012.50;;;20.04
66113;BMP280;52893;52.870;5.822;2023-04-29T09:36:35;102018.81;;;20.24
66113;BMP280;52893;52.870;5.822;2023-04-29T09:39:03;102022.59;;;20.35
66113;BMP280;52893;52.870;5.822;2023-04-29T09:41:57;102023.47;;;20.39
66113;BMP280;52893;52.870;5.822;2023-04-29T09:44:26;102014.41;;;20.61
66113;BMP280;52893;52.870;5.822;2023-04-29T09:46:55;102033.09;;;20.87
66113;BMP280;52893;52.870;5.822;2023-04-29T09:49:24;102017.88;;;21.04
66113;BMP280;52893;52.870;5.822;2023-04-29T09:51:53;102028.91;;;21.23
66113;BMP280;52893;52.870;5.822;2023-04-29T09:54:22;102024.38;;;21.41
66113;BMP280;52893;52.870;5.822;2023-04-29T09:56:51;102024.97;;;21.54
66113;BMP280;52893;52.870;5.822;2023-04-29T09:59:19;102029.53;;;21.69
66113;BMP280;52893;52.870;5.822;2023-04-29T10:01:48;102026.81;;;21.72
66113;BMP280;52893;52.870;5.822;2023-04-29T10:04:17;102035.19;;;21.76
66113;BMP280;52893;52.870;5.822;2023-04-29T10:06:45;102039.34;;;21.89
66113;BMP280;52893;52.870;5.822;2023-04-29T10:09:15;102037.41;;;21.93
66113;BMP280;52893;52.870;5.822;2023-04-29T10:11:43;102043.69;;;22.23
66113;BMP280;52893;52.870;5.822;2023-04-29T10:14:14;102050.94;;;22.31
66113;BMP280;52893;52.870;5.822;2023-04-29T10:16:45;102057.34;;;22.35
66113;BMP280;52893;52.870;5.822;2023-04-29T10:19:18;102055.03;;;22.41
66113;BMP280;52893;52.870;5.822;2023-04-29T10:21:47;102044.63;;;22.34
66113;BMP280;52893;52.870;5.822;2023-04-29T10:24:16;102055.06;;;22.07
66113;BMP280;52893;52.870;5.822;2023-04-29T10:26:46;102042.88;;;22.19
66113;BMP280;52893;52.870;5.822;2023-04-29T10:29:17;102043.63;;;22.16
66113;BMP280;52893;52.870;5.822;2023-04-29T10:31:47;102050.06;;;22.20
66113;BMP280;52893;52.870;5.822;2023-04-29T10:34:16;102047.06;;;22.39
66113;BMP280;52893;52.870;5.822;2023-04-29T10:36:45;102055.38;;;22.76
66113;BMP280;52893;52.870;5.822;2023-04-29T10:39:20;102050.09;;;23.11
66113;BMP280;52893;52.870;5.822;2023-04-29T10:41:50;102052.56;;;23.27
66113;BMP280;52893;52.870;5.822;2023-04-29T10:44:18;102053.53;;;23.52
66113;BMP280;52893;52.870;5.822;2023-04-29T10:46:46;102048.88;;;23.77
66113;BMP280;52893;52.870;5.822;2023-04-29T10:49:14;102044.91;;;23.85
66113;BMP280;52893;52.870;5.822;2023-04-29T10:51:42;102053.69;;;23.87
66113;BMP280;52893;52.870;5.822;2023-04-29T10:54:12;102052.00;;;23.72
66113;BMP280;52893;52.870;5.822;2023-04-29T10:56:41;102054.03;;;23.79
66113;BMP280;52893;52.870;5.822;2023-04-29T10:59:10;102046.50;;;23.86
66113;BMP280;52893;52.870;5.822;2023-04-29T11:01:45;102046.53;;;24.01
66113;BMP280;52893;52.870;5.822;2023-04-29T11:04:13;102045.72;;;24.00
66113;BMP280;52893;52.870;5.822;2023-04-29T11:06:43;102041.75;;;23.98
66113;BMP280;52893;52.870;5.822;2023-04-29T11:09:13;102045.38;;;24.05
66113;BMP280;52893;52.870;5.822;2023-04-29T11:11:45;102041.38;;;24.10
66113;BMP280;52893;52.870;5.822;2023-04-29T11:14:14;102036.22;;;24.29
66113;BMP280;52893;52.870;5.822;2023-04-29T11:16:54;102045.03;;;24.38
66113;BMP280;52893;52.870;5.822;2023-04-29T11:19:23;102039.47;;;24.42
66113;BMP280;52893;52.870;5.822;2023-04-29T11:22:07;102039.47;;;24.49
66113;BMP280;52893;52.870;5.822;2023-04-29T11:24:35;102047.84;;;24.67
66113;BMP280;52893;52.870;5.822;2023-04-29T11:27:02;102054.19;;;24.95
66113;BMP280;52893;52.870;5.822;2023-04-29T11:29:30;102051.00;;;25.07
66113;BMP280;52893;52.870;5.822;2023-04-29T11:32:00;102055.41;;;24.87
66113;BMP280;52893;52.870;5.822;2023-04-29T11:34:27;102060.59;;;24.92
66113;BMP280;52893;52.870;5.822;2023-04-29T11:36:54;102053.41;;;24.98
66113;BMP280;52893;52.870;5.822;2023-04-29T11:39:22;102052.63;;;24.80
66113;BMP280;52893;52.870;5.822;2023-04-29T11:41:49;102051.44;;;24.74
66113;BMP280;52893;52.870;5.822;2023-04-29T11:44:20;102048.63;;;24.81
66113;BMP280;52893;52.870;5.822;2023-04-29T11:46:48;102053.41;;;24.77
66113;BMP280;52893;52.870;5.822;2023-04-29T11:49:17;102059.78;;;24.67
66113;BMP280;52893;52.870;5.822;2023-04-29T11:51:45;102052.22;;;24.78
66113;BMP280;52893;52.870;5.822;2023-04-29T11:54:12;102066.19;;;24.99
66113;BMP280;52893;52.870;5.822;2023-04-29T11:56:40;102060.59;;;24.92
66113;BMP280;52893;52.870;5.822;2023-04-29T11:59:08;102072.97;;;24.81
66113;BMP280;52893;52.870;5.822;2023-04-29T12:01:35;102063.00;;;24.62
66113;BMP280;52893;52.870;5.822;2023-04-29T12:04:04;102068.91;;;24.22
66113;BMP280;52893;52.870;5.822;2023-04-29T12:06:33;102063.75;;;24.20
66113;BMP280;52893;52.870;5.822;2023-04-29T12:09:00;102067.78;;;24.44
66113;BMP280;52893;52.870;5.822;2023-04-29T12:11:29;102066.63;;;24.73
66113;BMP280;52893;52.870;5.822;2023-04-29T12:13:56;102074.19;;;24.90
66113;BMP280;52893;52.870;5.822;2023-04-29T12:16:27;102068.97;;;24.85
66113;BMP280;52893;52.870;5.822;2023-04-29T12:18:55;102071.38;;;24.76
66113;BMP280;52893;52.870;5.822;2023-04-29T12:21:23;102068.59;;;24.69
66113;BMP280;52893;52.870;5.822;2023-04-29T12:23:52;102072.19;;;24.63
66113;BMP280;52893;52.870;5.822;2023-04-29T12:26:19;102078.53;;;24.70
66113;BMP280;52893;52.870;5.822;2023-04-29T12:28:47;102077.78;;;24.77
66113;BMP280;52893;52.870;5.822;2023-04-29T12:31:15;102088.91;;;24.94
66113;BMP280;52893;52.870;5.822;2023-04-29T12:33:43;102077.75;;;24.98
66113;BMP280;52893;52.870;5.822;2023-04-29T12:36:15;102084.94;;;24.99
66113;BMP280;52893;52.870;5.822;2023-04-29T12:38:43;102082.56;;;25.01
66113;BMP280;52893;52.870;5.822;2023-04-29T12:41:13;102082.56;;;25.01
66113;BMP280;52893;52.870;5.822;2023-04-29T12:43:42;102087.34;;;24.97
66113;BMP280;52893;52.870;5.822;2023-04-29T12:46:09;102092.50;;;24.98
66113;BMP280;52893;52.870;5.822;2023-04-29T12:48:39;102088.91;;;25.05
66113;BMP280;52893;52.870;5.822;2023-04-29T12:51:09;102096.50;;;25.11
66113;BMP280;52893;52.870;5.822;2023-04-29T12:53:37;102099.69;;;25.03
66113;BMP280;52893;52.870;5.822;2023-04-29T12:56:05;102097.72;;;24.96
66113;BMP280;52893;52.870;5.822;2023-04-29T12:58:33;102100.84;;;24.17
66113;BMP280;52893;52.870;5.822;2023-04-29T13:01:01;102105.03;;;23.18
66113;BMP280;52893;52.870;5.822;2023-04-29T13:03:28;102095.63;;;22.45
66113;BMP280;52893;52.870;5.822;2023-04-29T13:05:55;102095.63;;;21.79
66113;BMP280;52893;52.870;5.822;2023-04-29T13:08:22;102098.94;;;21.13
66113;BMP280;52893;52.870;5.822;2023-04-29T13:10:49;102099.78;;;20.49
66113;BMP280;52893;52.870;5.822;2023-04-29T13:13:17;102098.81;;;20.03
66113;BMP280;52893;52.870;5.822;2023-04-29T13:15:45;102098.97;;;19.75
66113;BMP280;52893;52.870;5.822;2023-04-29T13:18:12;102106.50;;;19.59
66113;BMP280;52893;52.870;5.822;2023-04-29T13:20:40;102113.56;;;19.56
66113;BMP280;52893;52.870;5.822;2023-04-29T13:23:07;102101.34;;;19.42
66113;BMP280;52893;52.870;5.822;2023-04-29T13:25:34;102109.03;;;19.33
66113;BMP280;52893;52.870;5.822;2023-04-29T13:28:01;102106.78;;;19.22
66113;BMP280;52893;52.870;5.822;2023-04-29T13:30:30;102113.41;;;19.18
66113;BMP280;52893;52.870;5.822;2023-04-29T13:32:59;102107.13;;;19.21
66113;BMP280;52893;52.870;5.822;2023-04-29T13:35:26;102108.06;;;19.25
66113;BMP280;52893;52.870;5.822;2023-04-29T13:37:53;102114.84;;;19.28
66113;BMP280;52893;52.870;5.822;2023-04-29T13:40:21;102096.97;;;19.25
66113;BMP280;52893;52.870;5.822;2023-04-29T13:42:49;102115.63;;;19.44
66113;BMP280;52893;52.870;5.822;2023-04-29T13:45:16;102101.84;;;19.63
66113;BMP280;52893;52.870;5.822;2023-04-29T13:47:43;102108.00;;;20.07
66113;BMP280;52893;52.870;5.822;2023-04-29T13:50:12;102105.91;;;20.58
66113;BMP280;52893;52.870;5.822;2023-04-29T13:52:39;102111.34;;;21.19
66113;BMP280;52893;52.870;5.822;2023-04-29T13:55:07;102108.25;;;21.76
66113;BMP280;52893;52.870;5.822;2023-04-29T13:57:34;102110.41;;;22.16
66113;BMP280;52893;52.870;5.822;2023-04-29T14:00:02;102110.16;;;22.65
66113;BMP280;52893;52.870;5.822;2023-04-29T14:02:37;102115.78;;;23.16
66113;BMP280;52893;52.870;5.822;2023-04-29T14:05:05;102126.38;;;23.47
66113;BMP280;52893;52.870;5.822;2023-04-29T14:07:33;102127.38;;;23.79
66113;BMP280;52893;52.870;5.822;2023-04-29T14:10:01;102129.84;;;23.99